Time;durP1;ratioP1;P1;durP2;ratioP2;P2;SDS_P1;SDS_P2;PMS_P1;PMS_P2;Temp;Humidity;BMP_temperature;BMP_pressure;BME280_temperature;BME280_humidity;BME280_pressure;Samples;Min_cycle;Max_cycle;Signal;HPM_P1;HPM_P2
2023/01/23 00:01:47;;;;;;;7.60;3.30;;;;;;;-0.15;77.78;101948.64;109557;1252;72926;-73
2023/01/23 00:04:35;;;;;;;7.90;3.40;;;;;;;-0.14;76.94;101946.20;108780;1252;1002056;-72
2023/01/23 00:07:23;;;;;;;7.20;2.90;;;;;;;-0.14;76.82;101944.62;109524;1253;71440;-73
2023/01/23 00:10:11;;;;;;;8.00;2.80;;;;;;;-0.15;76.69;101944.45;109572;1252;57324;-73
2023/01/23 00:12:59;;;;;;;7.90;2.90;;;;;;;-0.16;77.02;101940.45;109576;1253;58906;-72
2023/01/23 00:15:47;;;;;;;7.90;3.00;;;;;;;-0.10;77.39;101944.09;109533;1253;72795;-74
2023/01/23 00:18:36;;;;;;;8.40;3.00;;;;;;;-0.09;77.71;101945.84;108862;1252;1002248;-73
2023/01/23 00:21:28;;;;;;;8.40;3.10;;;;;;;-0.10;76.99;101948.98;109541;1253;71461;-73
2023/01/23 00:24:16;;;;;;;8.30;3.70;;;;;;;-0.10;77.18;101952.80;109523;1252;57540;-73
2023/01/23 00:27:04;;;;;;;7.60;3.20;;;;;;;-0.08;77.44;101956.65;109547;1252;59132;-72
2023/01/23 00:29:53;;;;;;;9.50;3.60;;;;;;;-0.06;77.37;101958.73;109484;1252;71605;-70
2023/01/23 00:32:40;;;;;;;7.80;3.30;;;;;;;-0.05;76.94;101960.13;109570;1252;66868;-70
2023/01/23 00:35:29;;;;;;;9.50;3.10;;;;;;;-0.05;76.98;101960.14;109539;1252;72474;-69
2023/01/23 00:38:16;;;;;;;8.10;3.30;;;;;;;-0.06;76.45;101957.69;109523;1253;57383;-71
2023/01/23 00:41:06;;;;;;;7.80;3.20;;;;;;;-0.08;76.89;101958.22;109601;1252;60073;-70
2023/01/23 00:43:54;;;;;;;6.90;3.00;;;;;;;-0.07;77.03;101957.33;109525;1253;74257;-70
2023/01/23 00:46:42;;;;;;;8.10;3.30;;;;;;;-0.07;76.98;101952.80;109537;1253;67680;-72
2023/01/23 00:49:31;;;;;;;8.50;3.50;;;;;;;-0.06;77.27;101955.94;109537;1252;71196;-69
2023/01/23 00:52:19;;;;;;;8.30;3.70;;;;;;;-0.05;77.32;101957.16;109511;1252;58493;-69
2023/01/23 00:55:08;;;;;;;7.50;3.30;;;;;;;-0.06;76.96;101956.80;109512;1253;61014;-70
2023/01/23 00:57:56;;;;;;;8.20;3.50;;;;;;;-0.07;76.23;101955.95;109417;1253;72739;-70
2023/01/23 01:00:44;;;;;;;7.80;2.80;;;;;;;-0.09;76.05;101960.66;109520;1253;68062;-70
2023/01/23 01:03:32;;;;;;;7.20;3.00;;;;;;;-0.15;76.42;101956.48;109510;1252;71670;-70
2023/01/23 01:06:21;;;;;;;9.10;3.30;;;;;;;-0.12;76.73;101963.46;109515;1253;57434;-71
2023/01/23 01:09:09;;;;;;;8.60;3.40;;;;;;;-0.09;76.69;101959.80;109525;1253;59626;-73
2023/01/23 01:11:58;;;;;;;7.50;3.10;;;;;;;-0.07;76.91;101963.63;108772;1252;1002330;-71
2023/01/23 01:14:45;;;;;;;10.20;3.90;;;;;;;-0.08;76.89;101965.38;108799;1253;1002981;-71
2023/01/23 01:17:35;;;;;;;8.60;4.00;;;;;;;-0.05;77.16;101968.14;109375;1253;72782;-72
2023/01/23 01:20:25;;;;;;;9.10;3.90;;;;;;;-0.02;77.43;101971.63;109526;1252;57371;-71
2023/01/23 01:23:15;;;;;;;9.60;4.10;;;;;;;0.02;77.60;101973.90;109409;1252;60282;-71
2023/01/23 01:26:05;;;;;;;8.40;3.60;;;;;;;0.05;77.45;101974.58;109553;1252;72771;-71
2023/01/23 01:28:53;;;;;;;8.30;3.20;;;;;;;0.09;77.58;101975.96;109419;1253;67645;-71
2023/01/23 01:31:41;;;;;;;7.70;2.70;;;;;;;0.11;77.72;101977.35;109528;1253;71523;-71
2023/01/23 01:34:29;;;;;;;7.90;3.30;;;;;;;0.11;77.44;101977.86;109548;1252;57278;-71
2023/01/23 01:37:20;;;;;;;8.30;3.40;;;;;;;0.07;77.54;101974.40;108800;1252;1002492;-69
2023/01/23 01:40:15;;;;;;;9.10;3.80;;;;;;;0.10;77.73;101977.02;109364;1253;74108;-69
2023/01/23 01:43:14;;;;;;;8.00;2.90;;;;;;;0.08;77.93;101975.98;109499;1253;68001;-70
2023/01/23 01:46:32;;;;;;;8.70;3.90;;;;;;;0.05;78.03;101976.86;109526;1253;72958;-69
2023/01/23 01:49:29;;;;;;;9.60;4.00;;;;;;;0.03;78.21;101985.58;109365;1253;59501;-71
2023/01/23 01:52:19;;;;;;;9.50;3.90;;;;;;;-0.01;78.56;101983.52;109561;1253;59945;-72
2023/01/23 01:55:08;;;;;;;9.50;4.20;;;;;;;0.01;78.85;101994.49;109522;1256;73028;-72
2023/01/23 01:57:56;;;;;;;8.70;3.90;;;;;;;0.02;79.04;101997.63;109569;1253;66793;-69
2023/01/23 02:00:44;;;;;;;7.80;3.50;;;;;;;0.04;79.02;101994.48;109486;1253;70823;-71
2023/01/23 02:03:33;;;;;;;8.00;2.90;;;;;;;-0.01;78.98;101985.42;109544;1253;58095;-71
2023/01/23 02:06:21;;;;;;;9.50;4.30;;;;;;;0.00;78.92;101992.23;109486;1253;61526;-69
2023/01/23 02:09:25;;;;;;;9.50;4.10;;;;;;;-0.01;78.91;102000.08;109549;1253;72217;-71
2023/01/23 02:12:13;;;;;;;7.90;3.70;;;;;;;-0.02;79.22;101994.50;109423;1253;68052;-70
2023/01/23 02:15:05;;;;;;;9.90;4.30;;;;;;;0.01;79.01;101994.84;109378;1253;72459;-69
2023/01/23 02:17:53;;;;;;;8.80;3.70;;;;;;;0.03;78.89;101995.88;109515;1253;57353;-70
2023/01/23 02:20:41;;;;;;;9.10;4.00;;;;;;;0.04;78.73;102001.29;109522;1253;60353;-70
2023/01/23 02:23:47;;;;;;;8.80;3.70;;;;;;;0.04;78.84;101999.54;109606;1253;72908;-69
2023/01/23 02:26:42;;;;;;;8.40;3.20;;;;;;;0.04;78.37;102000.23;108845;1253;1002273;-70
2023/01/23 02:29:44;;;;;;;7.90;3.10;;;;;;;0.03;78.49;101999.70;109493;1253;71251;-69
2023/01/23 02:32:34;;;;;;;8.80;2.90;;;;;;;0.02;78.20;102001.30;109456;1253;57328;-69
2023/01/23 02:35:29;;;;;;;9.40;3.40;;;;;;;0.03;78.28;102008.98;108006;1253;1003155;-69
2023/01/23 02:38:30;;;;;;;8.00;3.60;;;;;;;0.01;78.14;102013.16;109542;1253;72090;-68
2023/01/23 02:41:26;;;;;;;8.70;3.50;;;;;;;-0.01;77.68;102009.50;109529;1253;66671;-68
2023/01/23 02:44:28;;;;;;;10.50;3.60;;;;;;;-0.03;77.69;102012.84;109503;1253;71191;-70
2023/01/23 02:47:18;;;;;;;8.90;3.30;;;;;;;-0.02;77.72;102012.12;109450;1252;58940;-68
2023/01/23 02:50:07;;;;;;;8.70;3.40;;;;;;;-0.02;76.91;102009.86;109524;1253;61123;-68
2023/01/23 02:52:56;;;;;;;7.40;3.20;;;;;;;-0.07;75.85;102019.46;109535;1252;73715;-68
2023/01/23 02:55:44;;;;;;;8.10;3.30;;;;;;;-0.11;75.94;102016.33;109393;1253;218498;-68
2023/01/23 03:01:39;;;;;;;8.50;2.70;;;;;;;-0.10;76.56;102018.60;109362;1253;57307;-70
2023/01/23 03:04:28;;;;;;;9.60;3.70;;;;;;;-0.11;76.65;102013.37;109549;1252;57999;-69
2023/01/23 03:07:17;;;;;;;7.90;3.00;;;;;;;-0.09;76.55;102022.79;109517;1253;71542;-70
2023/01/23 03:10:06;;;;;;;9.10;3.30;;;;;;;-0.08;76.92;102025.23;109557;1253;66506;-71
2023/01/23 03:12:57;;;;;;;8.60;3.50;;;;;;;-0.09;76.80;102024.36;109544;1253;73741;-69
2023/01/23 03:15:44;;;;;;;8.40;3.90;;;;;;;-0.10;77.00;102025.41;108746;1253;1002134;-70
2023/01/23 03:18:33;;;;;;;8.10;3.40;;;;;;;-0.09;77.06;102024.36;109498;1253;58731;-70
2023/01/23 03:21:32;;;;;;;10.80;4.70;;;;;;;-0.10;77.32;102024.19;109176;1257;72995;-70
2023/01/23 03:24:20;;;;;;;9.90;4.20;;;;;;;-0.09;77.33;102022.26;109154;1257;67687;-70
2023/01/23 03:27:08;;;;;;;8.50;3.70;;;;;;;-0.09;77.70;102020.70;109141;1257;72794;-71
2023/01/23 03:30:12;;;;;;;7.00;3.20;;;;;;;-0.07;78.06;102020.86;109010;1258;57356;-71
2023/01/23 03:33:00;;;;;;;8.60;3.60;;;;;;;-0.03;78.03;102020.16;109099;1257;61052;-69
2023/01/23 03:35:49;;;;;;;7.30;3.00;;;;;;;-0.02;78.28;102022.77;109100;1259;72373;-70
2023/01/23 03:38:37;;;;;;;10.20;3.30;;;;;;;-0.02;78.38;102026.45;109093;1259;66587;-70
2023/01/23 03:41:26;;;;;;;8.60;3.90;;;;;;;-0.06;78.62;102028.90;109066;1257;73884;-71
2023/01/23 03:44:19;;;;;;;9.90;3.90;;;;;;;-0.11;78.77;102030.13;109108;1257;58816;-70
2023/01/23 03:47:07;;;;;;;10.80;4.50;;;;;;;-0.10;78.84;102032.39;109061;1257;59110;-68
2023/01/23 03:49:57;;;;;;;8.90;4.10;;;;;;;-0.07;79.18;102032.73;109068;1261;72747;-69
2023/01/23 03:52:45;;;;;;;9.80;4.30;;;;;;;-0.03;79.19;102034.30;109412;1252;69023;-70
2023/01/23 03:55:32;;;;;;;8.50;3.90;;;;;;;0.01;79.16;102034.64;109515;1253;73895;-70
2023/01/23 03:58:21;;;;;;;9.70;3.90;;;;;;;0.02;78.88;102036.73;109540;1253;57345;-68
2023/01/23 04:01:09;;;;;;;8.20;3.70;;;;;;;0.02;78.97;102035.16;109527;1253;58875;-69
2023/01/23 04:03:58;;;;;;;8.10;3.40;;;;;;;0.04;79.04;102034.62;109562;1253;71932;-68
2023/01/23 04:06:46;;;;;;;8.80;4.00;;;;;;;0.03;79.18;102035.50;109399;1254;66793;-72
2023/01/23 04:09:35;;;;;;;8.90;3.90;;;;;;;0.03;78.82;102038.64;109382;1255;71626;-70
2023/01/23 04:12:24;;;;;;;9.60;4.50;;;;;;;-0.01;78.50;102044.06;109270;1257;57465;-71
2023/01/23 04:15:11;;;;;;;10.80;4.40;;;;;;;-0.01;79.03;102044.77;109294;1254;60474;-71
2023/01/23 04:17:59;;;;;;;11.10;4.60;;;;;;;0.02;78.98;102046.67;109232;1254;73741;-71
2023/01/23 04:20:48;;;;;;;8.90;3.80;;;;;;;0.03;78.90;102050.69;109305;1255;66572;-71
2023/01/23 04:23:36;;;;;;;9.60;3.80;;;;;;;0.02;79.00;102050.52;109170;1254;73355;-71
2023/01/23 04:26:25;;;;;;;8.50;3.90;;;;;;;0.04;79.30;102045.80;109293;1254;57401;-71
2023/01/23 04:29:13;;;;;;;8.50;3.60;;;;;;;0.04;79.01;102048.23;109370;1254;61502;-73
2023/01/23 04:32:01;;;;;;;7.80;3.70;;;;;;;0.05;79.04;102050.86;109300;1254;73136;-72
2023/01/23 04:34:50;;;;;;;7.30;3.20;;;;;;;0.06;78.94;102050.86;109223;1254;68403;-72
2023/01/23 04:37:39;;;;;;;10.10;4.60;;;;;;;0.05;78.98;102049.45;109281;1254;72016;-70
2023/01/23 04:40:28;;;;;;;10.60;4.30;;;;;;;0.06;79.01;102049.98;109265;1255;58411;-72
2023/01/23 04:43:19;;;;;;;10.10;4.50;;;;;;;0.05;79.00;102052.60;109284;1254;59203;-70
2023/01/23 04:46:09;;;;;;;10.30;4.80;;;;;;;0.05;78.92;102051.73;109545;1253;73196;-70
2023/01/23 04:49:17;;;;;;;8.70;3.80;;;;;;;0.07;79.06;102057.31;109569;1253;67916;-71
2023/01/23 04:52:05;;;;;;;9.40;3.80;;;;;;;0.09;78.94;102061.50;109508;1253;74167;-70
2023/01/23 04:54:56;;;;;;;8.30;3.80;;;;;;;0.11;79.10;102063.06;109577;1253;57323;-70
2023/01/23 04:57:45;;;;;;;10.10;3.90;;;;;;;0.12;79.14;102062.19;109279;1253;58739;-71
2023/01/23 05:00:38;;;;;;;8.80;4.00;;;;;;;0.10;78.90;102062.55;109384;1252;72713;-70
2023/01/23 05:03:26;;;;;;;8.90;4.40;;;;;;;0.09;78.93;102063.59;109498;1253;67682;-71
2023/01/23 05:06:14;;;;;;;10.00;3.90;;;;;;;0.10;78.93;102072.14;109496;1253;70801;-71
2023/01/23 05:09:04;;;;;;;11.00;4.10;;;;;;;0.10;78.81;102079.12;109481;1253;57303;-72
2023/01/23 05:11:58;;;;;;;10.10;4.50;;;;;;;0.12;78.87;102086.10;109555;1256;60435;-72
2023/01/23 05:14:46;;;;;;;8.80;4.10;;;;;;;0.13;78.92;102086.79;109314;1252;72162;-71
2023/01/23 05:17:35;;;;;;;8.60;3.90;;;;;;;0.14;78.98;102083.84;109553;1252;66652;-70
2023/01/23 05:20:23;;;;;;;8.50;3.60;;;;;;;0.14;78.81;102085.23;109285;1253;72405;-72
2023/01/23 05:23:11;;;;;;;10.20;3.50;;;;;;;0.09;78.23;102081.74;109357;1253;57513;-73
2023/01/23 05:26:07;;;;;;;11.80;4.10;;;;;;;0.06;78.40;102088.90;109467;1252;59388;-75
2023/01/23 05:28:55;;;;;;;10.40;4.50;;;;;;;0.05;78.27;102088.73;109449;1253;70879;-74
2023/01/23 05:31:45;;;;;;;9.40;4.10;;;;;;;0.07;78.64;102087.68;109513;1253;67916;-71
2023/01/23 05:35:02;;;;;;;8.70;3.90;;;;;;;0.08;78.60;102089.94;109531;1251;71084;-71
2023/01/23 05:37:51;;;;;;;8.80;3.70;;;;;;;0.05;78.46;102085.42;109532;1252;57661;-71
2023/01/23 05:40:42;;;;;;;9.10;3.60;;;;;;;0.04;78.32;102096.23;109595;1252;59167;-70
2023/01/23 05:43:35;;;;;;;8.80;3.80;;;;;;;0.01;78.29;102092.76;109586;1251;74223;-71
2023/01/23 05:46:46;;;;;;;9.00;3.30;;;;;;;0.03;77.98;102099.56;109548;1253;68112;-72
2023/01/23 05:49:34;;;;;;;8.00;3.80;;;;;;;0.01;78.08;102099.05;109612;1251;72649;-73
2023/01/23 05:52:22;;;;;;;9.30;4.00;;;;;;;0.00;78.19;102101.48;109546;1252;58489;-71
2023/01/23 05:55:11;;;;;;;7.50;3.60;;;;;;;0.00;77.67;102105.68;109496;1253;59094;-70
2023/01/23 05:57:59;;;;;;;8.60;3.80;;;;;;;-0.02;77.00;102110.03;109311;1255;71501;-72
2023/01/23 06:00:56;;;;;;;9.00;3.20;;;;;;;-0.03;76.88;102105.84;109273;1255;67617;-71
2023/01/23 06:04:03;;;;;;;7.00;3.00;;;;;;;-0.06;77.02;102102.54;109199;1256;72717;-72
2023/01/23 06:06:59;;;;;;;8.10;2.90;;;;;;;-0.07;77.24;102103.23;109153;1256;57829;-72
2023/01/23 06:09:47;;;;;;;8.50;3.20;;;;;;;-0.08;77.28;102106.38;109229;1256;60048;-72
2023/01/23 06:12:36;;;;;;;9.10;3.90;;;;;;;-0.09;77.17;102108.13;108527;1256;1002293;-70
2023/01/23 06:15:23;;;;;;;9.50;4.00;;;;;;;-0.12;76.75;102110.92;109219;1255;67596;-72
2023/01/23 06:18:13;;;;;;;8.70;3.40;;;;;;;-0.19;76.59;102108.30;109207;1255;71441;-72
2023/01/23 06:21:01;;;;;;;9.60;3.80;;;;;;;-0.24;76.78;102111.80;109190;1255;57325;-76
2023/01/23 06:23:49;;;;;;;8.60;3.30;;;;;;;-0.27;77.17;102111.27;108506;1254;1002246;-75
2023/01/23 06:26:37;;;;;;;8.50;3.70;;;;;;;-0.26;77.35;102111.80;109280;1255;71790;-76
2023/01/23 06:29:26;;;;;;;11.60;4.40;;;;;;;-0.24;77.53;102119.65;109327;1253;68310;-76
2023/01/23 06:32:14;;;;;;;8.40;3.60;;;;;;;-0.20;77.54;102123.48;109554;1253;73295;-75
2023/01/23 06:35:02;;;;;;;8.60;3.80;;;;;;;-0.19;77.27;102126.63;109502;1252;59508;-76
2023/01/23 06:37:54;;;;;;;9.30;4.40;;;;;;;-0.19;77.61;102126.98;109565;1252;60128;-77
2023/01/23 06:40:43;;;;;;;9.30;4.10;;;;;;;-0.19;77.59;102125.57;109510;1253;73171;-74
2023/01/23 06:43:48;;;;;;;7.90;3.20;;;;;;;-0.19;77.58;102129.41;109600;1253;66984;-75
2023/01/23 06:46:40;;;;;;;9.20;3.50;;;;;;;-0.18;78.12;102133.77;109522;1253;73473;-77
2023/01/23 06:49:28;;;;;;;12.10;5.10;;;;;;;-0.17;77.95;102137.27;109516;1252;57270;-74
2023/01/23 06:52:16;;;;;;;11.60;4.50;;;;;;;-0.16;77.66;102144.77;109497;1252;59826;-73
2023/01/23 06:55:06;;;;;;;12.30;5.00;;;;;;;-0.16;78.10;102147.92;109507;1253;74016;-74
2023/01/23 06:57:54;;;;;;;14.10;6.20;;;;;;;-0.13;77.78;102150.89;109493;1251;69179;-74
2023/01/23 07:00:43;;;;;;;16.20;6.70;;;;;;;-0.10;77.78;102151.04;109536;1252;73953;-74
2023/01/23 07:03:36;;;;;;;16.50;6.00;;;;;;;-0.13;77.54;102146.00;108637;1253;1002497;-74
2023/01/23 07:06:25;;;;;;;17.20;7.50;;;;;;;-0.05;77.19;102159.26;109574;1253;58716;-75
2023/01/23 07:09:13;;;;;;;19.00;7.90;;;;;;;-0.04;77.11;102163.98;109599;1252;72457;-74
2023/01/23 07:12:05;;;;;;;16.60;6.60;;;;;;;-0.05;76.78;102166.94;108790;1253;1002074;-74
2023/01/23 07:14:53;;;;;;;12.60;5.30;;;;;;;-0.06;76.70;102169.72;109539;1253;70269;-76
2023/01/23 07:17:46;;;;;;;10.50;5.10;;;;;;;-0.06;76.75;102167.98;109529;1253;57336;-73
2023/01/23 07:20:34;;;;;;;12.50;5.20;;;;;;;-0.05;77.05;102170.61;108819;1253;1002230;-76
2023/01/23 07:23:22;;;;;;;22.60;9.40;;;;;;;-0.05;76.84;102168.16;109510;1253;72862;-77
2023/01/23 07:26:11;;;;;;;18.90;8.10;;;;;;;-0.05;76.72;102172.00;109593;1253;67851;-75
2023/01/23 07:28:59;;;;;;;16.00;6.40;;;;;;;-0.02;76.85;102174.45;109524;1253;72506;-74
2023/01/23 07:31:47;;;;;;;20.40;7.70;;;;;;;0.01;76.85;102171.30;109638;1252;58913;-75
2023/01/23 07:34:35;;;;;;;15.50;6.80;;;;;;;0.02;77.00;102168.50;109601;1253;60355;-77
2023/01/23 07:37:23;;;;;;;14.30;6.20;;;;;;;0.04;76.52;102170.23;109577;1253;74165;-75
2023/01/23 07:40:12;;;;;;;15.40;5.80;;;;;;;0.03;76.48;102166.93;109563;1252;66714;-75
2023/01/23 07:43:00;;;;;;;15.00;5.70;;;;;;;0.01;76.57;102171.83;109501;1251;73875;-75
2023/01/23 07:45:53;;;;;;;12.70;5.60;;;;;;;-0.01;76.21;102177.23;109542;1252;58360;-75
2023/01/23 07:48:45;;;;;;;12.00;5.10;;;;;;;-0.01;76.04;102181.42;109175;1255;61608;-74
2023/01/23 07:51:34;;;;;;;12.80;5.40;;;;;;;-0.03;75.78;102184.04;108407;1257;1002566;-76
2023/01/23 07:54:22;;;;;;;10.50;4.50;;;;;;;-0.07;75.19;102181.59;109238;1256;69066;-74
2023/01/23 07:57:10;;;;;;;13.90;5.60;;;;;;;-0.07;75.52;102181.77;109203;1257;72347;-74
2023/01/23 07:59:59;;;;;;;10.50;4.90;;;;;;;-0.05;76.33;102175.49;109191;1255;57612;-71
2023/01/23 08:02:47;;;;;;;9.70;4.60;;;;;;;-0.02;76.19;102175.14;109201;1256;61048;-69
2023/01/23 08:05:35;;;;;;;9.10;4.20;;;;;;;0.02;76.38;102171.99;109203;1257;74295;-72
2023/01/23 08:08:23;;;;;;;9.80;4.20;;;;;;;0.04;76.34;102175.48;109241;1256;69174;-70
2023/01/23 08:11:11;;;;;;;8.70;4.00;;;;;;;0.05;76.48;102175.31;109188;1257;72042;-71
2023/01/23 08:14:00;;;;;;;10.70;4.90;;;;;;;0.06;76.49;102174.96;109096;1257;59960;-71
2023/01/23 08:16:49;;;;;;;11.60;5.50;;;;;;;0.09;76.47;102174.79;109188;1257;61550;-71
2023/01/23 08:19:37;;;;;;;11.90;5.10;;;;;;;0.10;76.32;102176.55;109271;1257;72121;-71
2023/01/23 08:22:25;;;;;;;11.70;5.30;;;;;;;0.11;76.03;102178.45;109244;1257;68287;-74
2023/01/23 08:25:12;;;;;;;10.90;5.30;;;;;;;0.11;75.69;102174.44;109233;1252;73040;-75
2023/01/23 08:28:00;;;;;;;12.20;5.30;;;;;;;0.10;75.62;102168.69;109516;1254;57813;-74
2023/01/23 08:30:48;;;;;;;10.60;4.40;;;;;;;0.11;76.14;102172.52;109600;1252;58983;-77
2023/01/23 08:33:38;;;;;;;12.70;5.00;;;;;;;0.12;76.22;102177.58;109154;1259;71455;-74
2023/01/23 08:36:26;;;;;;;10.20;4.20;;;;;;;0.09;75.98;102172.52;109152;1257;68071;-75
2023/01/23 08:39:18;;;;;;;9.70;4.50;;;;;;;0.09;75.89;102181.41;108358;1260;1002496;-74
2023/01/23 08:42:06;;;;;;;11.00;5.30;;;;;;;0.09;76.28;102186.30;109207;1256;59083;-75
2023/01/23 08:44:55;;;;;;;13.70;5.80;;;;;;;0.11;76.33;102181.25;109212;1255;61461;-76
2023/01/23 08:47:43;;;;;;;11.40;5.40;;;;;;;0.13;76.40;102187.02;109205;1259;73425;-76
2023/01/23 08:50:31;;;;;;;11.70;4.50;;;;;;;0.17;76.34;102186.48;109178;1257;66481;-76
2023/01/23 08:53:19;;;;;;;11.40;5.00;;;;;;;0.16;75.92;102186.48;109189;1257;72587;-75
2023/01/23 08:56:17;;;;;;;13.10;5.20;;;;;;;0.14;76.11;102195.74;109242;1255;57403;-74
2023/01/23 08:59:05;;;;;;;10.90;4.60;;;;;;;0.15;75.92;102197.48;109263;1256;59108;-73
2023/01/23 09:01:53;;;;;;;11.80;5.40;;;;;;;0.19;76.31;102205.69;109230;1256;73310;-77
2023/01/23 09:04:41;;;;;;;12.00;5.20;;;;;;;0.19;75.49;102209.71;109391;1254;66415;-76
2023/01/23 09:07:29;;;;;;;8.90;3.90;;;;;;;0.19;75.70;102217.39;109568;1253;71409;-75
2023/01/23 09:10:17;;;;;;;10.90;4.70;;;;;;;0.21;75.77;102217.90;108727;1253;1002934;-75
2023/01/23 09:13:06;;;;;;;10.50;4.70;;;;;;;0.22;75.60;102218.42;109546;1253;60185;-75
2023/01/23 09:15:53;;;;;;;10.80;4.80;;;;;;;0.25;75.92;102219.48;109597;1254;73142;-75
2023/01/23 09:18:41;;;;;;;10.00;4.60;;;;;;;0.27;75.72;102225.06;109544;1254;68165;-76
2023/01/23 09:21:29;;;;;;;10.00;4.00;;;;;;;0.28;75.71;102221.92;109557;1254;71871;-76
2023/01/23 09:24:17;;;;;;;9.80;4.40;;;;;;;0.32;75.76;102226.46;109469;1252;57358;-76
2023/01/23 09:27:06;;;;;;;9.00;4.10;;;;;;;0.34;75.88;102225.75;109546;1253;59012;-74
2023/01/23 09:29:54;;;;;;;10.50;5.00;;;;;;;0.34;75.66;102230.83;109505;1253;72979;-76
2023/01/23 09:32:42;;;;;;;9.90;4.20;;;;;;;0.33;75.64;102234.67;109561;1252;66863;-74
2023/01/23 09:35:31;;;;;;;10.20;4.00;;;;;;;0.32;75.60;102234.14;109537;1252;71041;-77
2023/01/23 09:38:19;;;;;;;11.70;4.70;;;;;;;0.29;76.04;102230.30;109510;1253;58956;-76
2023/01/23 09:41:22;;;;;;;10.90;5.00;;;;;;;0.34;76.11;102236.23;109527;1254;60351;-76
2023/01/23 09:44:24;;;;;;;11.60;4.90;;;;;;;0.35;75.53;102235.53;109525;1254;72347;-76
2023/01/23 09:47:42;;;;;;;11.00;4.80;;;;;;;0.33;75.55;102234.14;109555;1252;68991;-74
2023/01/23 09:50:36;;;;;;;9.70;4.40;;;;;;;0.36;75.83;102231.17;109512;1253;73778;-75
2023/01/23 09:53:34;;;;;;;11.40;4.40;;;;;;;0.39;75.86;102232.73;109514;1253;57286;-75
2023/01/23 09:56:40;;;;;;;8.80;4.00;;;;;;;0.40;75.51;102231.00;109505;1253;58728;-76
2023/01/23 09:59:42;;;;;;;8.10;3.60;;;;;;;0.38;75.64;102226.80;109608;1252;73024;-75
2023/01/23 10:02:46;;;;;;;11.20;4.60;;;;;;;0.45;75.67;102228.89;108790;1251;1002289;-76
2023/01/23 10:06:10;;;;;;;11.80;5.20;;;;;;;0.47;75.64;102225.05;109537;1252;72435;-75
2023/01/23 10:09:33;;;;;;;12.90;5.80;;;;;;;0.48;75.42;102225.22;108759;1252;1002389;-76
2023/01/23 10:12:38;;;;;;;11.70;5.40;;;;;;;0.53;75.57;102220.66;109581;1252;60050;-76
2023/01/23 10:15:45;;;;;;;13.50;5.30;;;;;;;0.55;75.52;102217.70;109354;1254;72893;-77
2023/01/23 10:19:34;;;;;;;13.40;5.10;;;;;;;0.57;75.43;102217.34;108792;1254;1002532;-74
2023/01/23 10:22:25;;;;;;;12.80;4.80;;;;;;;0.56;75.05;102219.96;108964;1260;73712;-74
2023/01/23 10:25:21;;;;;;;11.20;5.10;;;;;;;0.55;75.36;102222.41;108287;1258;1002882;-76
2023/01/23 10:28:38;;;;;;;13.20;6.00;;;;;;;0.56;75.46;102227.31;108148;1260;1002556;-75
2023/01/23 10:31:46;;;;;;;18.90;8.10;;;;;;;0.57;75.50;102222.06;109039;1260;73192;-74
2023/01/23 10:34:53;;;;;;;18.80;8.60;;;;;;;0.54;75.06;102218.23;108238;1259;1002612;-74
2023/01/23 10:37:50;;;;;;;12.80;5.80;;;;;;;0.52;74.84;102217.36;108996;1260;73849;-74
2023/01/23 10:43:55;;;;;;;12.00;5.20;;;;;;;0.44;74.97;102212.82;109082;1259;59259;-73
2023/01/23 10:46:59;;;;;;;10.10;5.10;;;;;;;0.40;75.26;102213.35;108965;1258;71194;-74
2023/01/23 10:49:47;;;;;;;12.70;4.60;;;;;;;0.39;75.72;102216.50;108997;1260;67124;-76
2023/01/23 10:52:44;;;;;;;11.60;5.10;;;;;;;0.41;75.75;102216.33;108149;1259;1002854;-75
2023/01/23 10:55:32;;;;;;;10.70;4.40;;;;;;;0.42;75.83;102212.48;108972;1259;58360;-76
2023/01/23 10:58:35;;;;;;;12.40;6.00;;;;;;;0.43;76.09;102210.73;108413;1253;1002087;-74
2023/01/23 11:01:31;;;;;;;12.80;5.90;;;;;;;0.46;76.01;102211.78;108796;1253;1002956;-72
2023/01/23 11:04:24;;;;;;;9.40;4.60;;;;;;;0.49;75.47;102213.87;109528;1253;67579;-75
2023/01/23 11:07:30;;;;;;;9.10;4.10;;;;;;;0.53;75.40;102211.23;109527;1252;72740;-77
2023/01/23 11:10:22;;;;;;;9.10;3.80;;;;;;;0.56;75.22;102211.23;109555;1253;57427;-75
2023/01/23 11:13:24;;;;;;;9.60;4.20;;;;;;;0.59;74.79;102221.89;109460;1252;61405;-75
2023/01/23 11:16:22;;;;;;;9.20;4.10;;;;;;;0.60;74.68;102217.68;109496;1254;72695;-76
2023/01/23 11:19:20;;;;;;;9.70;4.10;;;;;;;0.59;74.57;102214.89;109552;1253;66110;-75
2023/01/23 11:22:40;;;;;;;9.40;4.30;;;;;;;0.60;74.79;102212.10;109553;1253;72845;-74
2023/01/23 11:25:40;;;;;;;10.30;4.10;;;;;;;0.60;74.57;102210.01;109564;1252;57358;-75
2023/01/23 11:28:34;;;;;;;9.30;4.50;;;;;;;0.59;74.65;102208.43;109549;1253;59966;-75
2023/01/23 11:31:25;;;;;;;9.80;4.90;;;;;;;0.58;74.64;102202.85;109566;1252;71885;-75
2023/01/23 11:34:17;;;;;;;10.70;4.90;;;;;;;0.61;74.83;102203.89;109552;1252;67746;-75
2023/01/23 11:37:19;;;;;;;8.50;3.80;;;;;;;0.66;74.72;102201.08;109420;1252;72544;-75
2023/01/23 11:40:19;;;;;;;9.20;4.00;;;;;;;0.68;74.74;102200.37;109574;1252;57308;-75
2023/01/23 11:43:16;;;;;;;9.00;4.40;;;;;;;0.73;75.68;102204.02;109446;1252;60951;-75
2023/01/23 11:46:26;;;;;;;14.90;6.20;;;;;;;0.75;74.95;102212.25;109620;1252;72799;-75
2023/01/23 11:49:25;;;;;;;10.60;4.30;;;;;;;0.72;75.33;102212.77;109550;1252;67659;-75
2023/01/23 11:52:39;;;;;;;11.90;5.10;;;;;;;0.73;75.52;102214.70;109532;1252;71321;-74
2023/01/23 11:55:51;;;;;;;11.30;5.50;;;;;;;0.74;75.05;102218.02;109539;1251;58838;-74
2023/01/23 11:59:13;;;;;;;11.70;5.10;;;;;;;0.71;74.98;102212.95;109585;1252;59013;-75
2023/01/23 12:02:32;;;;;;;15.10;5.10;;;;;;;0.69;74.86;102212.25;109576;1252;72843;-77
2023/01/23 12:06:01;;;;;;;8.50;3.90;;;;;;;0.64;74.54;102214.02;109540;1251;66370;-75
2023/01/23 12:09:20;;;;;;;9.40;3.70;;;;;;;0.53;74.08;102219.80;109487;1252;73458;-73
2023/01/23 12:13:00;;;;;;;8.60;3.40;;;;;;;0.48;74.08;102219.29;109491;1252;58333;-75
2023/01/23 12:16:36;;;;;;;9.40;3.90;;;;;;;0.47;74.42;102220.15;108956;1259;60652;-77
2023/01/23 12:20:00;;;;;;;7.60;3.10;;;;;;;0.46;74.45;102221.03;108909;1258;73278;-74
2023/01/23 12:23:13;;;;;;;10.60;4.30;;;;;;;0.46;74.63;102220.16;109029;1258;69225;-73
2023/01/23 12:26:21;;;;;;;9.20;4.20;;;;;;;0.45;74.67;102211.77;109017;1258;73961;-73
2023/01/23 12:29:35;;;;;;;10.10;3.90;;;;;;;0.52;74.73;102213.69;108976;1260;57284;-73
2023/01/23 12:33:00;;;;;;;12.00;4.70;;;;;;;0.56;74.79;102216.83;109017;1258;60297;-73
2023/01/23 12:36:22;;;;;;;9.40;4.20;;;;;;;0.59;74.64;102215.41;109040;1259;73206;-73
2023/01/23 12:39:41;;;;;;;8.10;3.60;;;;;;;0.59;74.57;102214.73;109059;1259;67974;-75
2023/01/23 12:43:14;;;;;;;9.40;3.40;;;;;;;0.57;74.95;102216.81;109061;1259;71149;-73
2023/01/23 12:46:17;;;;;;;10.70;4.30;;;;;;;0.57;75.10;102214.73;108552;1266;58895;-75
2023/01/23 12:49:30;;;;;;;8.70;3.90;;;;;;;0.57;74.60;102215.42;108548;1266;61313;-75
2023/01/23 12:52:37;;;;;;;8.80;3.80;;;;;;;0.57;74.49;102222.06;108868;1260;74077;-74
2023/01/23 12:55:37;;;;;;;9.20;3.80;;;;;;;0.53;74.21;102222.41;108902;1260;66576;-75
2023/01/23 12:58:31;;;;;;;7.70;3.10;;;;;;;0.50;73.89;102225.20;108877;1260;73922;-74
2023/01/23 13:02:08;;;;;;;7.80;2.90;;;;;;;0.46;73.89;102223.48;108900;1260;57388;-76
2023/01/23 13:05:08;;;;;;;8.90;3.80;;;;;;;0.43;73.72;102223.48;108873;1260;60570;-74
2023/01/23 13:08:21;;;;;;;10.20;4.00;;;;;;;0.40;74.08;102236.94;108888;1260;73108;-73
2023/01/23 13:11:55;;;;;;;8.60;3.70;;;;;;;0.34;74.02;102231.87;108891;1260;68311;-73
2023/01/23 13:14:43;;;;;;;11.50;4.20;;;;;;;0.33;73.87;102230.48;108482;1266;72967;-73
2023/01/23 13:18:02;;;;;;;8.90;3.70;;;;;;;0.32;74.05;102229.42;108540;1265;57421;-73
2023/01/23 13:27:58;;;;;;;8.80;3.80;;;;;;;0.31;73.31;102238.16;108950;1259;68125;-73
2023/01/23 13:30:59;;;;;;;9.50;3.80;;;;;;;0.29;73.10;102239.22;109053;1259;71535;-74
2023/01/23 13:33:51;;;;;;;10.90;3.30;;;;;;;0.28;72.92;102238.69;109150;1258;56680;-73
2023/01/23 13:36:42;;;;;;;8.20;3.40;;;;;;;0.27;72.59;102235.55;109188;1259;61505;-75